Radar AviationWeather DUATS TFRs Wunderground Accuweather Weather.com

alt : Radar

TAFs

KJXN 230540Z 2306/2406 19005KT P6SM OVC070
   FM231500 22010G18KT P6SM OVC060
   FM232200 21005KT P6SM SKC
KTOL 230532Z 2306/2406 21004KT P6SM BKN250
   FM231400 23009KT P6SM BKN070
   FM232000 23010KT P6SM SCT060
   FM240100 23006KT P6SM SCT200
KCLE 230532Z 2306/2412 21004KT P6SM BKN250
     TEMPO 2306/2308 BKN035
   FM231300 21008KT P6SM BKN060
   FM240000 23009KT P6SM SCT120
   FM241100 20006KT P6SM FEW250
KFDY 230532Z 2306/2406 19004KT P6SM SCT250
   FM230800 20005KT P6SM BKN100
   FM231500 23009KT P6SM BKN070
   FM232200 22008KT P6SM SCT060
KDTW 230523Z 2306/2412 20005KT P6SM OVC100
   FM231600 23012KT P6SM SCT045 BKN100 OVC250
   FM240100 20005KT P6SM SCT250
KFWA 230520Z 2306/2406 21005KT P6SM BKN120 OVC200
   FM231600 22010KT P6SM BKN070
   FM232300 20005KT P6SM FEW250

METARs

KJXN 230656Z AUTO 21004KT 10SM OVC080 M01/M06 A3016 RMK AO2 SLP223 T10111061
KDUH 230654Z AUTO 21005KT 10SM SCT110 00/M06 A3019 RMK AO2 T10051057
KFWA 230654Z 20005KT 10SM BKN110 OVC150 M01/M03 A3019 RMK AO2 SLP231 T10111033 $
KDTW 230653Z 20006KT 10SM BKN085 BKN110 OVC190 M03/M06 A3019 RMK AO2 SLP230 T10281061
KFDY 230653Z AUTO 20005KT 10SM OVC110 M02/M06 A3019 RMK AO2 SLP228 T10171056
KTDZ 230653Z AUTO 22006KT 10SM SCT120 M02/M06 A3021 RMK AO2 SLP236 T10171056
KTOL 230652Z 20005KT 10SM FEW100 M01/M05 A3019 RMK AO2 SLP231 T10111050
KCLE 230651Z 21005KT 10SM FEW036 M03/M08 A3022 RMK AO2 SLP244 T10281078

alt : Satellite

alt : TFRs